createdAt,value
2019-04-16T00:00:04.029Z,42
2019-04-16T00:00:54.828Z,42
2019-04-16T00:01:49.669Z,42
2019-04-16T00:02:34.565Z,42
2019-04-16T00:03:29.316Z,42
2019-04-16T00:04:14.309Z,42
2019-04-16T00:05:04.643Z,42
2019-04-16T00:06:00.481Z,42
2019-04-16T00:06:44.504Z,42
2019-04-16T00:07:34.548Z,42
2019-04-16T00:08:33.423Z,41.9
2019-04-16T00:09:14.096Z,41.9
2019-04-16T00:10:05.491Z,41.9
2019-04-16T00:10:54.832Z,41.9
2019-04-16T00:11:45.134Z,41.9
2019-04-16T00:12:33.793Z,41.9
2019-04-16T00:13:25.281Z,41.9
2019-04-16T00:14:13.932Z,41.9
2019-04-16T00:15:05.796Z,41.9
2019-04-16T00:15:55.506Z,41.9
2019-04-16T00:16:50.255Z,41.9
2019-04-16T00:17:35.838Z,41.9
2019-04-16T00:18:25.670Z,41.9
2019-04-16T00:19:15.427Z,41.9
2019-04-16T00:20:11.228Z,41.9
2019-04-16T00:20:55.823Z,41.9
2019-04-16T00:21:46.250Z,41.9
2019-04-16T00:22:35.662Z,41.9
2019-04-16T00:23:25.988Z,41.9
2019-04-16T00:24:21.925Z,41.9
2019-04-16T00:25:06.232Z,41.9
2019-04-16T00:26:01.218Z,41.9
2019-04-16T00:26:45.976Z,41.9
2019-04-16T00:27:36.578Z,41.9
2019-04-16T00:28:30.445Z,41.9
2019-04-16T00:29:16.691Z,41.9
2019-04-16T00:30:11.341Z,41.8
2019-04-16T00:30:56.100Z,41.9
2019-04-16T00:31:46.882Z,41.8
2019-04-16T00:32:43.666Z,41.8
2019-04-16T00:33:25.868Z,41.8
2019-04-16T00:34:19.455Z,41.8
2019-04-16T00:35:07.357Z,41.8
2019-04-16T00:35:57.472Z,41.8
2019-04-16T00:36:52.027Z,41.8
2019-04-16T00:37:37.334Z,41.8
2019-04-16T00:38:44.194Z,41.8
2019-04-16T00:39:17.229Z,41.8
2019-04-16T00:40:06.784Z,41.8
2019-04-16T00:41:03.244Z,41.8
2019-04-16T00:41:46.622Z,41.8
2019-04-16T00:42:37.699Z,41.8
2019-04-16T00:43:27.174Z,41.8
2019-04-16T00:44:17.314Z,41.8
2019-04-16T00:45:08.184Z,41.8
2019-04-16T00:45:57.588Z,41.8
2019-04-16T00:46:47.199Z,41.8
2019-04-16T00:47:36.967Z,41.8
2019-04-16T00:48:27.612Z,41.8
2019-04-16T00:49:17.507Z,41.7
2019-04-16T00:50:07.721Z,41.8
2019-04-16T00:50:58.036Z,41.7
2019-04-16T00:51:47.861Z,41.7
2019-04-16T00:52:42.918Z,41.7
2019-04-16T00:53:28.176Z,41.7
2019-04-16T00:54:17.712Z,41.7
2019-04-16T00:55:08.168Z,41.7
2019-04-16T00:55:57.526Z,41.7
2019-04-16T00:56:52.768Z,41.7
2019-04-16T00:57:37.984Z,41.7
2019-04-16T00:58:28.303Z,41.7
2019-04-16T00:59:17.496Z,41.7
2019-04-16T01:00:09.025Z,41.7
2019-04-16T01:00:58.598Z,41.7
2019-04-16T01:01:48.508Z,41.7
2019-04-16T01:02:38.885Z,41.7
2019-04-16T01:03:28.643Z,41.6
2019-04-16T01:04:18.767Z,41.6
2019-04-16T01:05:08.838Z,41.6
2019-04-16T01:05:59.073Z,41.6
2019-04-16T01:06:49.161Z,41.6
2019-04-16T01:07:38.126Z,41.6
2019-04-16T01:08:29.054Z,41.6
2019-04-16T01:09:19.118Z,41.6
2019-04-16T01:10:09.638Z,41.6
2019-04-16T01:11:00.007Z,41.6
2019-04-16T01:11:54.727Z,41.6
2019-04-16T01:12:39.389Z,41.6
2019-04-16T01:13:31.169Z,41.6
2019-04-16T01:14:19.758Z,41.6
2019-04-16T01:15:09.434Z,41.6
2019-04-16T01:16:05.787Z,41.6
2019-04-16T01:16:49.937Z,41.6
2019-04-16T01:17:42.050Z,41.6
2019-04-16T01:18:29.467Z,41.6
2019-04-16T01:19:19.539Z,41.6
2019-04-16T01:20:16.487Z,41.6
2019-04-16T01:20:59.974Z,41.6
2019-04-16T01:21:51.127Z,41.6
2019-04-16T01:22:40.063Z,41.6
2019-04-16T01:23:30.701Z,41.6
2019-04-16T01:24:26.104Z,41.5
2019-04-16T01:25:10.477Z,41.5
2019-04-16T01:26:03.012Z,41.5
2019-04-16T01:26:50.902Z,41.5
2019-04-16T01:27:40.152Z,41.5
2019-04-16T01:28:35.974Z,41.5
2019-04-16T01:29:19.977Z,41.5
2019-04-16T01:30:12.697Z,41.5
2019-04-16T01:31:01.192Z,41.5
2019-04-16T01:31:50.708Z,41.5
2019-04-16T01:32:45.266Z,41.5
2019-04-16T01:33:30.636Z,41.4
2019-04-16T01:34:24.431Z,41.5
2019-04-16T01:35:26.186Z,41.4
2019-04-16T01:36:00.973Z,41.4
2019-04-16T01:36:57.274Z,41.4
2019-04-16T01:37:40.352Z,41.4
2019-04-16T01:38:33.956Z,41.4
2019-04-16T01:39:24.209Z,41.4
2019-04-16T01:40:11.871Z,41.4
2019-04-16T01:41:01.156Z,41.4
2019-04-16T01:41:57.270Z,41.4
2019-04-16T01:42:41.823Z,41.4
2019-04-16T01:43:32.433Z,41.4
2019-04-16T01:44:21.084Z,41.4
2019-04-16T01:45:12.289Z,41.4
2019-04-16T01:46:07.828Z,41.4
2019-04-16T01:46:51.566Z,41.4
2019-04-16T01:47:42.958Z,41.4
2019-04-16T01:48:32.476Z,41.4
2019-04-16T01:49:22.290Z,41.4
2019-04-16T01:50:17.985Z,41.4
2019-04-16T01:51:02.418Z,41.4
2019-04-16T01:51:53.495Z,41.4
2019-04-16T01:52:42.320Z,41.4
2019-04-16T01:53:32.347Z,41.4
2019-04-16T01:54:27.603Z,41.4
2019-04-16T01:55:13.263Z,41.3
2019-04-16T01:56:04.264Z,41.3
2019-04-16T01:56:52.282Z,41.3
2019-04-16T01:57:42.905Z,41.3
2019-04-16T01:58:38.532Z,41.3
2019-04-16T01:59:23.022Z,41.4
2019-04-16T02:00:14.855Z,41.4
2019-04-16T02:01:03.005Z,41.4
2019-04-16T02:01:52.427Z,41.4
2019-04-16T02:02:49.027Z,41.4
2019-04-16T02:03:33.157Z,41.5
2019-04-16T02:04:25.601Z,41.6
2019-04-16T02:05:13.075Z,41.6
2019-04-16T02:06:03.695Z,41.7
2019-04-16T02:06:59.267Z,41.8
2019-04-16T02:07:43.252Z,41.8
2019-04-16T02:08:36.189Z,41.9
2019-04-16T02:09:34.042Z,41.9
2019-04-16T02:10:13.999Z,42
2019-04-16T02:11:04.010Z,42.1
2019-04-16T02:11:53.713Z,42.1
2019-04-16T02:12:49.389Z,42.1
2019-04-16T02:13:33.512Z,42.1
2019-04-16T02:14:27.443Z,42.2
2019-04-16T02:15:14.333Z,42.1
2019-04-16T02:16:04.463Z,42.2
2019-04-16T02:17:00.319Z,42.2
2019-04-16T02:17:43.821Z,42.3
2019-04-16T02:18:36.264Z,42.3
2019-04-16T02:19:24.567Z,42.3
2019-04-16T02:20:15.191Z,42.4
2019-04-16T02:21:09.481Z,42.4
2019-04-16T02:21:54.142Z,42.4
2019-04-16T02:22:50.299Z,42.4
2019-04-16T02:23:34.809Z,42.4
2019-04-16T02:24:24.626Z,42.5
2019-04-16T02:25:21.001Z,42.5
2019-04-16T02:26:05.291Z,42.5
2019-04-16T02:27:00.596Z,42.5
2019-04-16T02:27:44.826Z,42.5
2019-04-16T02:28:34.346Z,42.5
2019-04-16T02:29:29.386Z,42.5
2019-04-16T02:30:14.927Z,42.5
2019-04-16T02:31:16.496Z,42.5
2019-04-16T02:31:57.828Z,42.6
2019-04-16T02:32:45.370Z,42.6
2019-04-16T02:33:35.762Z,42.6
2019-04-16T02:34:25.774Z,42.6
2019-04-16T02:35:14.785Z,42.6
2019-04-16T02:36:06.165Z,42.6
2019-04-16T02:37:05.093Z,42.6
2019-04-16T02:37:45.952Z,42.7
2019-04-16T02:38:36.274Z,42.7
2019-04-16T02:39:54.383Z,42.7
2019-04-16T02:40:23.746Z,42.7
2019-04-16T02:41:06.396Z,42.7
2019-04-16T02:42:05.251Z,42.7
2019-04-16T02:42:46.251Z,42.7
2019-04-16T02:43:45.135Z,42.7
2019-04-16T02:44:25.905Z,42.7
2019-04-16T02:45:25.530Z,42.7
2019-04-16T02:46:07.120Z,42.8
2019-04-16T02:46:56.581Z,42.8
2019-04-16T02:47:48.416Z,42.8
2019-04-16T02:48:36.862Z,42.8
2019-04-16T02:49:30.173Z,42.9
2019-04-16T02:50:16.448Z,42.9
2019-04-16T02:51:14.393Z,42.9
2019-04-16T02:51:56.406Z,42.9
2019-04-16T02:52:56.518Z,42.9
2019-04-16T02:53:37.066Z,43
2019-04-16T02:54:35.980Z,43
2019-04-16T02:55:18.140Z,43
2019-04-16T02:56:07.496Z,43
2019-04-16T02:56:58.482Z,43
2019-04-16T02:57:47.767Z,43
2019-04-16T02:58:40.413Z,43.1
2019-04-16T02:59:27.206Z,43.1
2019-04-16T03:00:22.388Z,43.1
2019-04-16T03:01:07.174Z,43.1
2019-04-16T03:01:57.668Z,43
2019-04-16T03:02:47.969Z,43.1
2019-04-16T03:03:37.740Z,43.1
2019-04-16T03:07:08.819Z,43
2019-04-16T03:07:52.189Z,43
2019-04-16T03:08:41.554Z,43
2019-04-16T03:09:32.856Z,43
2019-04-16T03:10:22.926Z,43
2019-04-16T03:11:20.384Z,43
2019-04-16T03:12:02.501Z,43
2019-04-16T03:12:58.708Z,43
2019-04-16T03:13:43.444Z,43
2019-04-16T03:14:36.099Z,43
2019-04-16T03:15:22.479Z,43.1
2019-04-16T03:16:13.979Z,43.1
2019-04-16T03:17:06.758Z,43.1
2019-04-16T03:17:53.205Z,43.1
2019-04-16T03:18:49.572Z,43.1
2019-04-16T03:19:33.301Z,43.1
2019-04-16T03:20:29.885Z,43.1
2019-04-16T03:21:13.881Z,43.1
2019-04-16T03:22:09.305Z,43.1
2019-04-16T03:22:53.049Z,43.1
2019-04-16T03:23:43.615Z,43.1
2019-04-16T03:24:33.135Z,43.1
2019-04-16T03:25:23.555Z,43.1
2019-04-16T03:26:20.065Z,43.1
2019-04-16T03:27:08.340Z,43.1
2019-04-16T03:27:59.465Z,43.1
2019-04-16T03:28:44.253Z,43.1
2019-04-16T03:29:37.428Z,43.1
2019-04-16T03:30:23.936Z,43.1
2019-04-16T03:31:28.391Z,43.1
2019-04-16T03:32:06.251Z,43.1
2019-04-16T03:32:55.280Z,43
2019-04-16T03:33:55.884Z,42.9
2019-04-16T03:34:34.692Z,42.9
2019-04-16T03:35:30.917Z,42.8
2019-04-16T03:36:14.950Z,42.7
2019-04-16T03:37:08.097Z,42.6
2019-04-16T03:37:54.648Z,42.6
2019-04-16T03:38:47.888Z,42.5
2019-04-16T03:39:34.820Z,42.5
2019-04-16T03:40:31.409Z,42.4
2019-04-16T03:41:16.280Z,42.4
2019-04-16T03:42:05.729Z,42.4
2019-04-16T03:43:06.065Z,42.4
2019-04-16T03:43:44.765Z,42.3
2019-04-16T03:44:41.314Z,42.3
2019-04-16T03:45:25.826Z,42.3
2019-04-16T03:46:19.666Z,42.3
2019-04-16T03:47:05.487Z,42.3
2019-04-16T03:47:57.789Z,42.2
2019-04-16T03:48:45.681Z,42.2
2019-04-16T03:49:34.656Z,42.2
2019-04-16T03:50:25.597Z,42.1
2019-04-16T03:51:15.959Z,42.1
2019-04-16T03:52:13.183Z,42.1
2019-04-16T03:52:55.511Z,42.1
2019-04-16T03:53:52.295Z,42.1
2019-04-16T03:54:35.346Z,42.1
2019-04-16T03:55:31.775Z,42.1
2019-04-16T03:56:16.092Z,42.1
2019-04-16T03:57:09.054Z,42.1
2019-04-16T03:57:56.446Z,42.1
2019-04-16T03:58:46.162Z,42.1
2019-04-16T03:59:36.283Z,42.1
2019-04-16T04:00:26.049Z,42
2019-04-16T04:01:21.159Z,42
2019-04-16T04:02:07.073Z,42
2019-04-16T04:03:00.973Z,42
2019-04-16T04:03:45.980Z,42
2019-04-16T04:04:36.869Z,42
2019-04-16T04:05:26.934Z,41.9
2019-04-16T04:06:17.308Z,41.9
2019-04-16T04:07:13.858Z,41.9
2019-04-16T04:08:00.820Z,41.9
2019-04-16T04:08:56.377Z,41.9
2019-04-16T04:09:37.206Z,41.9
2019-04-16T04:10:42.958Z,41.9
2019-04-16T04:11:17.578Z,41.9
2019-04-16T04:12:09.576Z,41.9
2019-04-16T04:12:56.980Z,41.9
2019-04-16T04:13:52.815Z,41.9
2019-04-16T04:14:37.895Z,41.9
2019-04-16T04:15:32.798Z,41.9
2019-04-16T04:16:18.522Z,41.9
2019-04-16T04:17:13.559Z,41.9
2019-04-16T04:17:57.612Z,41.8
2019-04-16T04:18:49.527Z,41.8
2019-04-16T04:19:37.989Z,41.9
2019-04-16T04:20:27.173Z,41.8
2019-04-16T04:21:23.840Z,41.8
2019-04-16T04:22:07.706Z,41.8
2019-04-16T04:23:03.419Z,41.8
2019-04-16T04:23:47.753Z,41.8
2019-04-16T04:24:37.528Z,41.8
2019-04-16T04:25:28.417Z,41.8
2019-04-16T04:26:18.947Z,41.8
2019-04-16T04:27:19.689Z,41.8
2019-04-16T04:27:58.856Z,41.8
2019-04-16T04:28:54.625Z,41.8
2019-04-16T04:29:38.176Z,41.8
2019-04-16T04:30:35.214Z,41.8
2019-04-16T04:31:18.591Z,41.8
2019-04-16T04:32:10.416Z,41.8
2019-04-16T04:32:58.766Z,41.8
2019-04-16T04:33:49.163Z,41.8
2019-04-16T04:34:39.551Z,41.7
2019-04-16T04:35:29.481Z,41.7
2019-04-16T04:36:31.118Z,41.7
2019-04-16T04:37:09.288Z,41.7
2019-04-16T04:38:05.554Z,41.7
2019-04-16T04:38:49.386Z,41.7
2019-04-16T04:39:45.344Z,41.6
2019-04-16T04:40:45.055Z,41.6
2019-04-16T04:41:26.468Z,41.6
2019-04-16T04:42:10.605Z,41.6
2019-04-16T04:43:06.730Z,41.6
2019-04-16T04:43:50.378Z,41.6
2019-04-16T04:44:42.498Z,41.6
2019-04-16T04:45:30.136Z,41.6
2019-04-16T04:46:21.813Z,41.6
2019-04-16T04:47:10.478Z,41.6
2019-04-16T04:47:59.754Z,41.6
2019-04-16T04:48:49.537Z,41.6
2019-04-16T04:49:39.613Z,41.6
2019-04-16T04:50:32.334Z,41.6
2019-04-16T04:51:20.093Z,41.6
2019-04-16T04:52:16.606Z,41.6
2019-04-16T04:53:00.373Z,41.6
2019-04-16T04:53:56.380Z,41.6
2019-04-16T04:54:39.935Z,41.6
2019-04-16T04:55:32.124Z,41.6
2019-04-16T04:56:30.652Z,41.6
2019-04-16T04:57:10.727Z,41.7
2019-04-16T04:58:05.430Z,41.8
2019-04-16T04:58:51.077Z,41.8
2019-04-16T04:59:42.480Z,41.8
2019-04-16T05:00:30.700Z,41.8
2019-04-16T05:01:20.836Z,41.8
2019-04-16T05:02:17.406Z,41.8
2019-04-16T05:03:00.267Z,41.8
2019-04-16T05:03:54.132Z,41.8
2019-04-16T05:04:40.967Z,41.8
2019-04-16T05:05:31.962Z,41.8
2019-04-16T05:06:26.695Z,41.8
2019-04-16T05:07:10.520Z,41.8
2019-04-16T05:08:05.704Z,41.9
2019-04-16T05:08:51.061Z,41.9
2019-04-16T05:09:42.787Z,41.9
2019-04-16T05:10:30.840Z,41.9
2019-04-16T05:11:22.919Z,41.9
2019-04-16T05:12:14.323Z,41.9
2019-04-16T05:13:01.009Z,41.9
2019-04-16T05:13:56.287Z,41.9
2019-04-16T05:14:41.434Z,41.9
2019-04-16T05:15:35.354Z,41.9
2019-04-16T05:16:21.269Z,41.9
2019-04-16T05:17:12.969Z,41.9
2019-04-16T05:18:02.186Z,41.9
2019-04-16T05:18:51.431Z,42
2019-04-16T05:19:45.555Z,41.9
2019-04-16T05:20:36.119Z,41.9
2019-04-16T05:21:25.186Z,41.9
2019-04-16T05:22:12.296Z,41.9
2019-04-16T05:23:04.095Z,41.9
2019-04-16T05:23:58.681Z,41.9
2019-04-16T05:24:43.849Z,42
2019-04-16T05:25:38.726Z,42
2019-04-16T05:26:23.180Z,41.9
2019-04-16T05:27:15.271Z,41.9
2019-04-16T05:28:03.198Z,41.9
2019-04-16T05:28:53.273Z,41.9
2019-04-16T05:29:42.466Z,41.9
2019-04-16T05:30:32.543Z,41.9
2019-04-16T05:31:32.294Z,42
2019-04-16T05:32:13.271Z,41.9
2019-04-16T05:33:09.178Z,41.9
2019-04-16T05:33:53.613Z,41.9
2019-04-16T05:34:43.983Z,41.9
2019-04-16T05:35:32.651Z,41.9
2019-04-16T05:36:27.557Z,41.9
2019-04-16T05:37:20.785Z,41.9
2019-04-16T05:38:02.836Z,41.9
2019-04-16T05:38:59.117Z,41.9
2019-04-16T05:39:43.484Z,41.9
2019-04-16T05:40:40.882Z,41.9
2019-04-16T05:41:28.663Z,41.9
2019-04-16T05:42:13.604Z,41.9
2019-04-16T05:43:04.639Z,41.9
2019-04-16T05:43:53.260Z,41.9
2019-04-16T05:44:43.588Z,41.9
2019-04-16T05:45:39.866Z,41.9
2019-04-16T05:46:23.896Z,41.9
2019-04-16T05:47:20.965Z,41.9
2019-04-16T05:48:03.962Z,41.9
2019-04-16T05:48:59.694Z,41.9
2019-04-16T05:49:44.227Z,41.9
2019-04-16T05:50:35.664Z,41.9
2019-04-16T05:51:24.664Z,41.9
2019-04-16T05:52:15.049Z,41.9
2019-04-16T05:53:14.985Z,41.9
2019-04-16T05:53:54.262Z,41.8
2019-04-16T05:54:51.134Z,41.8
2019-04-16T05:55:34.636Z,41.8
2019-04-16T05:56:29.892Z,41.8
2019-04-16T05:57:14.762Z,41.8
2019-04-16T05:58:05.101Z,41.8
2019-04-16T05:58:54.619Z,41.8
2019-04-16T05:59:45.218Z,41.8
2019-04-16T06:00:35.368Z,41.8
2019-04-16T06:01:25.329Z,41.8
2019-04-16T06:02:23.204Z,41.8
2019-04-16T06:03:05.449Z,41.8
2019-04-16T06:05:02.621Z,41.8
2019-04-16T06:05:52.354Z,41.8
2019-04-16T06:06:42.098Z,41.8
2019-04-16T06:07:32.633Z,41.8
2019-04-16T06:08:22.698Z,41.8
2019-04-16T06:09:19.960Z,41.8
2019-04-16T06:10:02.953Z,41.8
2019-04-16T06:11:00.046Z,41.8
2019-04-16T06:11:43.346Z,41.8
2019-04-16T06:12:41.691Z,41.8
2019-04-16T06:13:23.651Z,41.8
2019-04-16T06:14:20.999Z,41.8
2019-04-16T06:15:03.176Z,41.7
2019-04-16T06:15:58.350Z,41.8
2019-04-16T06:16:43.175Z,41.7
2019-04-16T06:17:38.450Z,41.7
2019-04-16T06:18:24.323Z,41.7
2019-04-16T06:19:18.015Z,41.7
2019-04-16T06:20:03.263Z,41.7
2019-04-16T06:20:58.700Z,41.7
2019-04-16T06:21:43.732Z,41.7
2019-04-16T06:22:35.726Z,41.7
2019-04-16T06:23:22.670Z,41.6
2019-04-16T06:24:13.752Z,41.6
2019-04-16T06:25:14.610Z,41.6
2019-04-16T06:25:54.341Z,41.6
2019-04-16T06:26:49.767Z,41.6
2019-04-16T06:27:34.172Z,41.6
2019-04-16T06:28:23.754Z,41.6
2019-04-16T06:29:14.163Z,41.6
2019-04-16T06:30:08.479Z,41.6
2019-04-16T06:30:54.138Z,41.6
2019-04-16T06:31:46.203Z,41.6
2019-04-16T06:32:34.375Z,41.6
2019-04-16T06:33:24.472Z,41.6
2019-04-16T06:34:14.375Z,41.6
2019-04-16T06:35:04.502Z,41.6
2019-04-16T06:35:54.775Z,41.6
2019-04-16T06:36:45.170Z,41.6
2019-04-16T06:37:34.899Z,41.6
2019-04-16T06:38:24.432Z,41.6
2019-04-16T06:39:15.011Z,41.6
2019-04-16T06:40:07.652Z,41.6
2019-04-16T06:40:54.627Z,41.6
2019-04-16T06:41:57.067Z,41.5
2019-04-16T06:42:34.459Z,41.5
2019-04-16T06:43:32.313Z,41.5
2019-04-16T06:44:15.627Z,41.5
2019-04-16T06:45:11.374Z,41.5
2019-04-16T06:45:55.239Z,41.5
2019-04-16T06:46:46.191Z,41.5
2019-04-16T06:47:35.343Z,41.5
2019-04-16T06:48:25.644Z,41.5
2019-04-16T06:49:22.911Z,41.5
2019-04-16T06:50:06.190Z,41.5
2019-04-16T06:50:55.901Z,41.4
2019-04-16T06:51:50.549Z,41.4
2019-04-16T06:52:35.739Z,41.4
2019-04-16T06:53:34.348Z,41.4
2019-04-16T06:54:17.598Z,41.5
2019-04-16T06:55:09.936Z,41.4
2019-04-16T06:55:56.266Z,41.4
2019-04-16T06:56:46.241Z,41.4
2019-04-16T06:57:36.357Z,41.4
2019-04-16T06:58:43.979Z,41.4
2019-04-16T06:59:20.509Z,41.4
2019-04-16T07:00:12.709Z,41.4
2019-04-16T07:00:56.395Z,41.4
2019-04-16T07:01:48.300Z,41.4
2019-04-16T07:03:04.690Z,41.4
2019-04-16T07:05:07.311Z,41.4
2019-04-16T07:05:52.905Z,41.4
2019-04-16T07:06:46.375Z,41.4
2019-04-16T07:07:50.520Z,41.4
2019-04-16T07:08:43.228Z,41.3
2019-04-16T07:09:11.715Z,41.3
2019-04-16T07:10:03.428Z,41.4
2019-04-16T07:10:53.062Z,41.3
2019-04-16T07:11:57.118Z,41.3
2019-04-16T07:12:39.866Z,41.3
2019-04-16T07:13:22.911Z,41.3
2019-04-16T07:14:21.043Z,41.3
2019-04-16T07:15:03.087Z,41.3
2019-04-16T07:15:59.284Z,41.3
2019-04-16T07:16:43.611Z,41.3
2019-04-16T07:17:43.408Z,41.3
2019-04-16T07:18:27.361Z,41.3
2019-04-16T07:19:21.027Z,41.3
2019-04-16T07:20:07.253Z,41.3
2019-04-16T07:20:53.651Z,30.4
2019-04-16T07:21:43.362Z,23.4
2019-04-16T07:22:33.102Z,20.1
2019-04-16T07:23:31.078Z,19.6
2019-04-16T07:24:14.808Z,19.8
2019-04-16T07:25:12.884Z,20.7
2019-04-16T07:25:56.674Z,22.1
2019-04-16T07:26:59.152Z,22.9
2019-04-16T07:27:43.744Z,24.3
2019-04-16T07:28:32.404Z,25.6
2019-04-16T07:29:16.766Z,26.6
2019-04-16T07:30:21.854Z,27.2
2019-04-16T07:30:55.929Z,36.5
2019-04-16T07:31:45.738Z,44.8
2019-04-16T07:32:35.202Z,52.8
2019-04-16T07:33:24.809Z,54.1
2019-04-16T07:34:14.226Z,53.2
2019-04-16T07:35:05.029Z,52.3
2019-04-16T07:35:55.073Z,51.4
2019-04-16T07:36:44.529Z,50.6
2019-04-16T07:37:38.493Z,50
2019-04-16T07:38:23.836Z,49.5
2019-04-16T07:39:39.891Z,49.1
2019-04-16T07:40:12.533Z,48.4
2019-04-16T07:40:55.408Z,47.4
2019-04-16T07:41:49.373Z,47.9
2019-04-16T07:42:35.232Z,57.2
2019-04-16T07:44:12.443Z,57.7
2019-04-16T07:44:48.703Z,56.4
2019-04-16T07:45:38.205Z,54.6
2019-04-16T07:46:44.110Z,53.3
2019-04-16T07:47:24.401Z,52.7
2019-04-16T07:48:12.971Z,52.9
2019-04-16T07:49:02.088Z,53.4
2019-04-16T07:50:05.006Z,53.6
2019-04-16T07:50:38.997Z,53.4
2019-04-16T07:51:29.209Z,53.3
2019-04-16T07:52:18.655Z,53
2019-04-16T07:53:15.442Z,52.9
2019-04-16T07:54:03.243Z,52.9
2019-04-16T07:54:48.860Z,53
2019-04-16T07:55:39.202Z,53.2
2019-04-16T07:56:28.982Z,53.3
2019-04-16T07:57:19.037Z,53.7
2019-04-16T07:58:09.985Z,54.6
2019-04-16T07:59:05.617Z,56
2019-04-16T07:59:49.583Z,57.6
2019-04-16T08:00:45.937Z,58.6
2019-04-16T08:01:28.813Z,59.6
2019-04-16T08:02:26.977Z,60
2019-04-16T08:03:11.145Z,60.4
2019-04-16T08:04:09.184Z,60.7
2019-04-16T08:04:49.862Z,61.1
2019-04-16T08:05:46.225Z,61.3
2019-04-16T08:06:30.277Z,61.3
2019-04-16T08:07:25.190Z,60.8
2019-04-16T08:08:10.365Z,59.8
2019-04-16T08:09:04.327Z,58.9
2019-04-16T08:09:50.301Z,58.1
2019-04-16T08:11:29.880Z,57.6
2019-04-16T08:13:09.734Z,58
2019-04-16T08:14:01.074Z,58.3
2019-04-16T08:14:50.604Z,59.1
2019-04-16T08:15:41.092Z,59.4
2019-04-16T08:16:30.996Z,59.4
2019-04-16T08:17:20.839Z,59.8
2019-04-16T08:18:10.628Z,60
2019-04-16T08:19:00.456Z,60.1
2019-04-16T08:19:59.574Z,60.1
2019-04-16T08:20:40.784Z,59.9
2019-04-16T08:21:30.820Z,60
2019-04-16T08:22:23.160Z,60.4
2019-04-16T08:23:11.091Z,60.8
2019-04-16T08:24:01.608Z,61.3
2019-04-16T08:24:50.585Z,62
2019-04-16T08:25:40.312Z,63.2
2019-04-16T08:26:31.183Z,63.8
2019-04-16T08:27:25.000Z,64.2
2019-04-16T08:28:13.212Z,64.2
2019-04-16T08:29:02.609Z,63.9
2019-04-16T08:29:50.618Z,63.5
2019-04-16T08:30:45.172Z,63.4
2019-04-16T08:31:33.784Z,63.5
2019-04-16T08:32:25.585Z,63.7
2019-04-16T08:33:15.861Z,63.9
2019-04-16T08:34:01.969Z,64.3
2019-04-16T08:34:52.142Z,64.9
2019-04-16T08:35:42.150Z,65.6
2019-04-16T08:36:31.629Z,66.2
2019-04-16T08:37:22.254Z,66.8
2019-04-16T08:38:12.027Z,67.4
2019-04-16T08:39:08.366Z,67.3
2019-04-16T08:39:51.868Z,66.1
2019-04-16T08:40:47.921Z,64.9
2019-04-16T08:41:32.559Z,63.6
2019-04-16T08:42:47.039Z,62.8
2019-04-16T08:43:13.128Z,62.1
2019-04-16T08:44:13.388Z,61.9
2019-04-16T08:44:52.861Z,61.8
2019-04-16T08:45:45.913Z,61.8
2019-04-16T08:46:33.949Z,61.9
2019-04-16T08:47:23.236Z,62.1
2019-04-16T08:48:22.651Z,62.1
2019-04-16T08:49:03.089Z,62
2019-04-16T08:50:00.093Z,61.9
2019-04-16T08:50:42.391Z,62.1
2019-04-16T08:51:42.433Z,62.3
2019-04-16T08:52:23.645Z,62.2
2019-04-16T08:53:18.898Z,61.9
2019-04-16T08:54:02.913Z,61.6
2019-04-16T08:54:59.667Z,61.8
2019-04-16T08:55:43.613Z,62.4
2019-04-16T08:56:33.371Z,63.3
2019-04-16T08:57:22.697Z,64.3
2019-04-16T08:58:17.518Z,65
2019-04-16T08:59:53.098Z,65.8
2019-04-16T09:00:50.366Z,65.8
2019-04-16T09:01:33.704Z,64.9
2019-04-16T09:02:30.223Z,64.2
2019-04-16T09:03:17.127Z,64.2
2019-04-16T09:04:08.170Z,65.2
2019-04-16T09:04:52.577Z,66.8
2019-04-16T09:05:47.373Z,68.1
2019-04-16T09:06:33.580Z,69.1
2019-04-16T09:07:26.988Z,68.6
2019-04-16T09:08:25.197Z,67.1
2019-04-16T09:09:29.995Z,65.4
2019-04-16T09:10:10.041Z,64.1
2019-04-16T09:10:48.064Z,63.3
2019-04-16T09:11:40.413Z,63.2
2019-04-16T09:12:25.494Z,62.9
2019-04-16T09:13:18.054Z,62.7
2019-04-16T09:14:04.431Z,62.4
2019-04-16T09:15:02.263Z,62.2
2019-04-16T09:15:59.520Z,61.8
2019-04-16T09:16:34.562Z,61.6
2019-04-16T09:17:24.339Z,61.6
2019-04-16T09:18:14.833Z,62.1
2019-04-16T09:19:05.095Z,62.9
2019-04-16T09:19:54.589Z,63.3
2019-04-16T09:20:45.409Z,63.3
2019-04-16T09:21:35.224Z,62.9
2019-04-16T09:22:25.767Z,62.3
2019-04-16T09:23:16.010Z,62.1
2019-04-16T09:24:15.459Z,62.5
2019-04-16T09:24:56.028Z,63.8
2019-04-16T09:25:51.933Z,65.1
2019-04-16T09:26:57.120Z,67.4
2019-04-16T09:27:36.226Z,68.3
2019-04-16T09:28:35.983Z,68.6
2019-04-16T09:29:15.932Z,68.9
2019-04-16T09:29:55.346Z,69.1
2019-04-16T09:30:52.652Z,69.3
2019-04-16T09:31:35.678Z,69.6
2019-04-16T09:32:32.584Z,69.9
2019-04-16T09:33:15.701Z,70.3
2019-04-16T09:34:12.586Z,70.5
2019-04-16T09:35:21.862Z,70.8
2019-04-16T09:35:49.913Z,71.2
2019-04-16T09:36:36.053Z,71.3
2019-04-16T09:37:36.285Z,71.5
2019-04-16T09:38:18.503Z,71.1
2019-04-16T09:39:06.895Z,69.9
2019-04-16T09:39:57.093Z,68.9
2019-04-16T09:40:50.429Z,67.9
2019-04-16T09:41:37.192Z,67.4
2019-04-16T09:42:27.051Z,67.3
2019-04-16T09:43:24.410Z,67.8
2019-04-16T09:44:06.620Z,68.3
2019-04-16T09:44:56.651Z,68.3
2019-04-16T09:45:47.298Z,67.8
2019-04-16T09:47:07.598Z,67.1
2019-04-16T09:47:33.930Z,65.3
2019-04-16T09:48:17.038Z,64.8
2019-04-16T09:49:11.753Z,64.1
2019-04-16T09:49:56.989Z,63.9
2019-04-16T09:50:53.908Z,64.4
2019-04-16T09:51:37.687Z,66.1
2019-04-16T09:52:30.092Z,67.6
2019-04-16T09:53:18.348Z,69
2019-04-16T09:54:14.714Z,69.4
2019-04-16T09:54:57.902Z,68.8
2019-04-16T09:55:54.116Z,67.5
2019-04-16T09:56:38.064Z,65.8
2019-04-16T09:57:35.830Z,64.9
2019-04-16T09:58:21.522Z,64.4
2019-04-16T09:59:10.910Z,64.4
2019-04-16T09:59:58.250Z,64.3
2019-04-16T10:00:50.970Z,64.1
2019-04-16T10:01:38.159Z,63.9
2019-04-16T10:02:28.390Z,63.6
2019-04-16T10:03:19.142Z,63.4
2019-04-16T10:06:06.061Z,62.2
2019-04-16T10:06:52.454Z,61.7
2019-04-16T10:07:45.683Z,61.3
2019-04-16T10:08:35.382Z,60.9
2019-04-16T10:09:28.386Z,60.6
2019-04-16T10:10:13.119Z,60.3
2019-04-16T10:11:11.431Z,60.1
2019-04-16T10:11:53.460Z,59.9
2019-04-16T10:12:43.287Z,59.8
2019-04-16T10:13:41.945Z,59.4
2019-04-16T10:14:23.166Z,58.7
2019-04-16T10:15:13.489Z,58.2
2019-04-16T10:16:02.798Z,57.6
2019-04-16T10:16:53.285Z,57.1
2019-04-16T10:17:43.032Z,56.6
2019-04-16T10:18:40.046Z,56.1
2019-04-16T10:19:27.725Z,55.6
2019-04-16T10:20:14.563Z,55.1
2019-04-16T10:21:03.443Z,54.7
2019-04-16T10:21:59.845Z,54.3
2019-04-16T10:22:43.476Z,53.8
2019-04-16T10:23:34.114Z,53.6
2019-04-16T10:24:24.193Z,53.2
2019-04-16T10:25:14.055Z,53.8
2019-04-16T10:26:53.860Z,61
2019-04-16T10:27:44.135Z,62.2
2019-04-16T10:28:40.028Z,61.9
2019-04-16T10:29:24.650Z,61.1
2019-04-16T10:30:14.238Z,60.4
2019-04-16T10:31:04.391Z,60.1
2019-04-16T10:31:54.638Z,60.1
2019-04-16T10:32:44.632Z,60.2
2019-04-16T10:33:34.213Z,60.3
2019-04-16T10:34:24.759Z,60.3
2019-04-16T10:35:14.632Z,60.2
2019-04-16T10:36:11.570Z,60.1
2019-04-16T10:36:54.411Z,60.1
2019-04-16T10:37:44.577Z,60
2019-04-16T10:38:34.973Z,59.9
2019-04-16T10:39:25.449Z,59.9
2019-04-16T10:40:15.577Z,59.8
2019-04-16T10:41:04.973Z,59.7
2019-04-16T10:41:57.870Z,59.6
2019-04-16T10:42:45.376Z,59.8
2019-04-16T10:43:49.405Z,59.9
2019-04-16T10:44:24.822Z,60.1
2019-04-16T10:45:15.216Z,60.1
2019-04-16T10:46:05.238Z,60.1
2019-04-16T10:46:55.737Z,60.1
2019-04-16T10:47:45.690Z,60.3
2019-04-16T10:48:35.958Z,60.6
2019-04-16T10:49:25.242Z,60.9
2019-04-16T10:50:14.444Z,61.2
2019-04-16T10:51:06.267Z,61.8
2019-04-16T10:51:56.010Z,63.3
2019-04-16T10:52:45.990Z,64.4
2019-04-16T10:53:34.627Z,64.9
2019-04-16T10:54:25.021Z,64.6
2019-04-16T10:55:21.883Z,63.8
2019-04-16T10:56:06.303Z,62.7
2019-04-16T10:57:03.105Z,62
2019-04-16T10:57:45.910Z,61.6
2019-04-16T10:58:36.354Z,61.7
2019-04-16T10:59:26.438Z,62.1
2019-04-16T11:00:16.233Z,62.4
2019-04-16T11:01:06.966Z,62.4
2019-04-16T11:01:56.337Z,61.9
2019-04-16T11:02:45.925Z,61.2
2019-04-16T11:03:40.856Z,60.4
2019-04-16T11:04:27.286Z,59.8
2019-04-16T11:05:24.325Z,59.4
2019-04-16T11:06:07.044Z,59
2019-04-16T11:06:56.771Z,58.8
2019-04-16T11:07:47.695Z,58.5
2019-04-16T11:08:38.097Z,58.2
2019-04-16T11:09:27.255Z,57.8
2019-04-16T11:10:17.957Z,57.3
2019-04-16T11:11:07.322Z,56.7
2019-04-16T11:11:56.821Z,56.1
2019-04-16T11:12:48.085Z,55.4
2019-04-16T11:13:37.585Z,55
2019-04-16T11:14:27.355Z,54.5
2019-04-16T11:15:17.486Z,54
2019-04-16T11:16:07.516Z,53.5
2019-04-16T11:16:57.866Z,53.1
2019-04-16T11:17:47.970Z,52.8
2019-04-16T11:19:27.064Z,52.1
2019-04-16T11:20:17.756Z,51.8
2019-04-16T11:21:08.033Z,51.6